Time;durP1;ratioP1;P1;durP2;ratioP2;P2;SDS_P1;SDS_P2;PMS_P1;PMS_P2;Temp;Humidity;BMP_temperature;BMP_pressure;BME280_temperature;BME280_humidity;BME280_pressure;Samples;Min_cycle;Max_cycle;Signal;HPM_P1;HPM_P2
2022/05/31 00:01:59;;;;;;;1.90;1.23;;;14.90;98.80;;;;;;7394787;19;20213;-79
2022/05/31 00:04:24;;;;;;;2.10;1.30;;;14.60;99.40;;;;;;7392677;19;20794;-76
2022/05/31 00:06:50;;;;;;;1.65;1.33;;;14.60;99.60;;;;;;7393442;19;20118;-77
2022/05/31 00:09:16;;;;;;;2.85;1.10;;;14.40;99.50;;;;;;7393613;19;20206;-81
2022/05/31 00:11:43;;;;;;;1.20;1.10;;;14.40;99.90;;;;;;7398111;19;20228;-75
2022/05/31 00:14:11;;;;;;;1.88;1.20;;;14.60;99.80;;;;;;7398310;19;20535;-75
2022/05/31 00:16:37;;;;;;;2.05;1.83;;;14.60;99.80;;;;;;7396524;19;20143;-77
2022/05/31 00:19:03;;;;;;;2.47;1.35;;;14.60;99.70;;;;;;7395022;19;20148;-80
2022/05/31 00:21:43;;;;;;;3.28;1.65;;;14.50;99.70;;;;;;7394790;19;20131;-80
2022/05/31 00:24:14;;;;;;;2.08;1.40;;;14.30;99.90;;;;;;7397870;19;20154;-80
2022/05/31 00:26:40;;;;;;;1.80;1.60;;;14.50;99.90;;;;;;7402075;19;20151;-78
2022/05/31 00:29:08;;;;;;;3.33;1.50;;;14.60;99.90;;;;;;7402946;19;20131;-79
2022/05/31 00:31:36;;;;;;;2.40;1.63;;;14.60;99.90;;;;;;7404363;19;20588;-76
2022/05/31 00:34:04;;;;;;;1.98;1.30;;;14.70;99.90;;;;;;7406063;19;20458;-75
2022/05/31 00:36:30;;;;;;;3.65;1.30;;;14.20;99.90;;;;;;7395008;19;20500;-75
2022/05/31 00:38:57;;;;;;;2.55;1.35;;;14.30;99.90;;;;;;7392605;19;20616;-75
2022/05/31 00:41:23;;;;;;;3.10;1.45;;;14.20;99.90;;;;;;7394284;19;20883;-79
2022/05/31 00:43:57;;;;;;;1.55;1.40;;;13.90;99.90;;;;;;7394216;19;20135;-75
2022/05/31 00:46:28;;;;;;;2.60;1.30;;;14.10;99.90;;;;;;7395981;19;20218;-79
2022/05/31 00:48:59;;;;;;;1.52;1.40;;;14.20;99.90;;;;;;7398207;19;20142;-80
2022/05/31 00:51:44;;;;;;;1.45;1.33;;;14.20;99.90;;;;;;7405406;19;20198;-80
2022/05/31 00:54:17;;;;;;;2.75;1.35;;;14.30;99.90;;;;;;7395814;19;20137;-76
2022/05/31 00:56:45;;;;;;;2.58;1.33;;;14.40;99.90;;;;;;7392942;19;20151;-80
2022/05/31 00:59:28;;;;;;;1.60;1.00;;;14.40;99.90;;;;;;7395856;19;20146;-80
2022/05/31 01:01:56;;;;;;;2.28;1.42;;;14.40;99.90;;;;;;7391830;19;20159;-80
2022/05/31 01:04:53;;;;;;;3.22;1.30;;;14.30;99.90;;;;;;7396493;19;20178;-79
2022/05/31 01:07:19;;;;;;;1.98;1.15;;;14.40;99.90;;;;;;7405380;19;20143;-79
2022/05/31 01:09:45;;;;;;;1.38;1.17;;;14.40;99.90;;;;;;7396700;19;20127;-81
2022/05/31 01:12:13;;;;;;;1.75;1.42;;;14.30;99.90;;;;;;7392559;19;20167;-81
2022/05/31 01:14:41;;;;;;;1.77;1.30;;;14.40;99.90;;;;;;7391533;19;20170;-80
2022/05/31 01:17:15;;;;;;;2.20;1.40;;;14.30;99.90;;;;;;7393305;19;20158;-76
2022/05/31 01:19:55;;;;;;;1.40;1.20;;;14.40;99.90;;;;;;7396144;19;20143;-76
2022/05/31 01:22:29;;;;;;;2.80;1.20;;;14.30;99.90;;;;;;7391927;19;20206;-76
2022/05/31 01:25:18;;;;;;;2.13;1.40;;;14.30;99.90;;;;;;7399180;19;20123;-76
2022/05/31 01:27:53;;;;;;;3.08;1.40;;;14.30;99.90;;;;;;7394009;19;20250;-76
2022/05/31 01:30:19;;;;;;;1.50;1.20;;;14.30;99.90;;;;;;7393558;19;20139;-77
2022/05/31 01:32:54;;;;;;;1.80;1.30;;;14.20;99.90;;;;;;7393876;19;20147;-81
2022/05/31 01:35:26;;;;;;;1.50;1.40;;;14.20;99.90;;;;;;7395748;19;20153;-77
2022/05/31 01:37:58;;;;;;;1.75;1.30;;;14.10;99.90;;;;;;7394493;19;20135;-77
2022/05/31 01:40:52;;;;;;;2.25;1.67;;;14.00;99.90;;;;;;7393184;19;20146;-80
2022/05/31 01:43:17;;;;;;;2.85;1.40;;;14.00;99.90;;;;;;7395473;19;20138;-76
2022/05/31 01:45:59;;;;;;;1.40;1.10;;;14.10;99.90;;;;;;7392780;19;20139;-80
2022/05/31 01:48:28;;;;;;;2.45;1.30;;;14.10;99.90;;;;;;7392743;19;20138;-81
2022/05/31 01:50:54;;;;;;;1.40;1.20;;;13.90;99.90;;;;;;7393696;19;20531;-81
2022/05/31 01:53:20;;;;;;;1.70;1.10;;;13.80;99.90;;;;;;7392506;19;20146;-80
2022/05/31 01:55:48;;;;;;;2.80;1.10;;;13.70;99.90;;;;;;7391355;19;20501;-80
2022/05/31 01:58:20;;;;;;;2.47;1.20;;;13.90;99.90;;;;;;7396154;19;20134;-79
2022/05/31 02:00:46;;;;;;;2.90;1.40;;;14.10;99.90;;;;;;7393165;19;20143;-75
2022/05/31 02:03:15;;;;;;;2.38;1.40;;;14.00;99.90;;;;;;7392246;19;20157;-77
2022/05/31 02:05:50;;;;;;;1.52;1.25;;;14.00;99.90;;;;;;7390365;19;20528;-80
2022/05/31 02:08:19;;;;;;;1.67;1.40;;;14.10;99.90;;;;;;7393736;19;20137;-80
2022/05/31 02:10:46;;;;;;;2.17;1.23;;;14.10;99.90;;;;;;7390860;19;20147;-76
2022/05/31 02:13:12;;;;;;;1.77;1.10;;;14.20;99.90;;;;;;7391595;19;20154;-77
2022/05/31 02:15:38;;;;;;;2.28;1.30;;;14.10;99.90;;;;;;7393502;19;20166;-80
2022/05/31 02:18:05;;;;;;;1.85;1.35;;;14.00;99.90;;;;;;7387847;19;20157;-76
2022/05/31 02:20:31;;;;;;;1.50;1.23;;;14.00;99.90;;;;;;7387190;19;20146;-76
2022/05/31 02:22:56;;;;;;;2.88;1.60;;;14.00;99.90;;;;;;7387577;19;20519;-79
2022/05/31 02:25:22;;;;;;;2.33;1.50;;;14.00;99.90;;;;;;7394325;19;20139;-79
2022/05/31 02:27:48;;;;;;;2.67;1.20;;;14.10;99.90;;;;;;7394998;19;20653;-78
2022/05/31 02:30:14;;;;;;;2.23;1.40;;;13.90;99.90;;;;;;7394045;19;20138;-80
2022/05/31 02:32:40;;;;;;;1.75;1.42;;;13.80;99.90;;;;;;7391390;19;20138;-80
2022/05/31 02:35:09;;;;;;;1.58;1.20;;;13.60;99.90;;;;;;7392353;19;20153;-80
2022/05/31 02:37:36;;;;;;;1.98;1.35;;;13.70;99.90;;;;;;7390036;19;20138;-76
2022/05/31 02:40:02;;;;;;;1.35;1.20;;;13.90;99.90;;;;;;7390846;19;20205;-80
2022/05/31 02:42:28;;;;;;;2.40;1.40;;;13.80;99.90;;;;;;7392271;19;20139;-79
2022/05/31 02:44:54;;;;;;;1.70;1.60;;;13.70;99.90;;;;;;7393192;19;20175;-80
2022/05/31 02:47:20;;;;;;;1.70;1.10;;;13.80;99.90;;;;;;7390525;19;20202;-79
2022/05/31 02:49:47;;;;;;;1.85;1.27;;;13.90;99.90;;;;;;7390960;19;20150;-80
2022/05/31 02:52:13;;;;;;;1.40;1.23;;;13.70;99.90;;;;;;7390214;19;20155;-80
2022/05/31 02:54:39;;;;;;;2.53;1.60;;;13.60;99.90;;;;;;7391537;19;20174;-75
2022/05/31 02:57:05;;;;;;;1.60;1.42;;;13.50;99.90;;;;;;7389934;19;20138;-80
2022/05/31 02:59:31;;;;;;;2.33;1.30;;;13.50;99.90;;;;;;7388895;19;20143;-79
2022/05/31 03:01:57;;;;;;;1.83;1.25;;;13.70;99.90;;;;;;7391050;19;20138;-79
2022/05/31 03:04:24;;;;;;;4.93;1.25;;;13.70;99.90;;;;;;7392367;19;20516;-77
2022/05/31 03:06:49;;;;;;;2.78;1.45;;;13.70;99.90;;;;;;7393808;19;20141;-80
2022/05/31 03:09:16;;;;;;;1.95;1.42;;;13.80;99.90;;;;;;7390792;19;20732;-80
2022/05/31 03:11:56;;;;;;;1.30;1.20;;;13.70;99.90;;;;;;7388737;19;20135;-81
2022/05/31 03:14:28;;;;;;;1.38;1.23;;;13.60;99.90;;;;;;7390129;19;20159;-77
2022/05/31 03:17:28;;;;;;;2.33;1.40;;;13.50;99.90;;;;;;7390059;19;20147;-81
2022/05/31 03:20:04;;;;;;;3.65;1.40;;;13.40;99.90;;;;;;7391779;19;20249;-77
2022/05/31 03:22:37;;;;;;;2.15;1.42;;;13.40;99.90;;;;;;7389767;19;20570;-76
2022/05/31 03:25:11;;;;;;;1.30;1.10;;;13.50;99.90;;;;;;7389619;19;20126;-81
2022/05/31 03:27:37;;;;;;;2.30;1.42;;;13.30;99.90;;;;;;7390833;19;20130;-77
2022/05/31 03:30:04;;;;;;;2.23;1.20;;;13.30;99.90;;;;;;7394668;19;20604;-81
2022/05/31 03:32:34;;;;;;;1.27;1.02;;;13.30;99.90;;;;;;7397593;19;20162;-77
2022/05/31 03:34:59;;;;;;;1.10;1.00;;;13.30;99.90;;;;;;7400480;19;20141;-80
2022/05/31 03:37:25;;;;;;;2.35;1.30;;;13.30;99.90;;;;;;7399147;19;20238;-77
2022/05/31 03:39:51;;;;;;;2.50;1.43;;;13.40;99.90;;;;;;7397688;19;20252;-77
2022/05/31 03:42:17;;;;;;;2.17;1.60;;;13.40;99.90;;;;;;7393335;19;20135;-77
2022/05/31 03:44:42;;;;;;;2.43;1.20;;;13.40;99.90;;;;;;7397582;19;20168;-80
2022/05/31 03:47:08;;;;;;;2.10;1.30;;;13.40;99.90;;;;;;7396694;19;20134;-76
2022/05/31 03:49:34;;;;;;;1.40;1.30;;;13.60;99.90;;;;;;7400117;19;20180;-77
2022/05/31 03:52:01;;;;;;;3.28;1.40;;;13.70;99.90;;;;;;7398308;19;20158;-80
2022/05/31 03:54:27;;;;;;;1.60;1.23;;;13.70;99.90;;;;;;7396163;19;20158;-77
2022/05/31 03:56:53;;;;;;;3.20;1.38;;;13.70;99.90;;;;;;7394921;19;20218;-76
2022/05/31 03:59:19;;;;;;;5.10;1.45;;;13.70;99.90;;;;;;7395391;19;20152;-79
2022/05/31 04:01:45;;;;;;;2.90;1.85;;;13.80;99.90;;;;;;7394950;19;20135;-76
2022/05/31 04:04:11;;;;;;;2.47;1.70;;;13.80;99.90;;;;;;7399435;19;20182;-75
2022/05/31 04:06:36;;;;;;;4.00;1.92;;;13.70;99.90;;;;;;7397038;19;20150;-80
2022/05/31 04:09:04;;;;;;;2.20;1.50;;;13.80;99.90;;;;;;7400352;19;20142;-80
2022/05/31 04:11:30;;;;;;;3.30;1.52;;;13.70;99.90;;;;;;7392849;19;20227;-78
2022/05/31 04:13:55;;;;;;;3.42;1.60;;;13.60;99.90;;;;;;7393132;19;20520;-81
2022/05/31 04:16:22;;;;;;;2.23;1.57;;;13.50;99.90;;;;;;7395088;19;20154;-77
2022/05/31 04:18:48;;;;;;;3.72;1.70;;;13.60;99.90;;;;;;7393637;19;20501;-77
2022/05/31 04:21:17;;;;;;;3.22;1.85;;;13.50;99.90;;;;;;7394202;19;20147;-76
2022/05/31 04:23:59;;;;;;;1.87;1.40;;;13.60;99.90;;;;;;7398162;19;20225;-78
2022/05/31 04:26:27;;;;;;;3.30;1.90;;;13.50;99.90;;;;;;7399589;19;20138;-76
2022/05/31 04:28:53;;;;;;;2.08;1.83;;;13.50;99.90;;;;;;7394130;19;20138;-80
2022/05/31 04:31:19;;;;;;;2.33;1.60;;;13.50;99.90;;;;;;7397338;19;20138;-80
2022/05/31 04:33:45;;;;;;;3.10;1.90;;;13.30;99.90;;;;;;7393850;19;20145;-80
2022/05/31 04:36:13;;;;;;;3.20;1.98;;;13.20;99.90;;;;;;7394780;19;20151;-79
2022/05/31 04:38:39;;;;;;;7.53;2.15;;;13.20;99.90;;;;;;7401381;19;20202;-79
2022/05/31 04:41:06;;;;;;;3.47;2.28;;;13.20;99.90;;;;;;7408489;19;20155;-78
2022/05/31 04:43:33;;;;;;;6.03;2.53;;;13.50;99.90;;;;;;7399636;19;20139;-77
2022/05/31 04:46:12;;;;;;;4.82;2.50;;;13.70;99.90;;;;;;7393745;19;20194;-80
2022/05/31 04:48:38;;;;;;;4.90;2.40;;;13.80;99.90;;;;;;7392394;19;20150;-77
2022/05/31 04:51:04;;;;;;;5.03;3.00;;;13.90;99.90;;;;;;7392253;19;20506;-79
2022/05/31 04:53:30;;;;;;;6.27;2.90;;;13.50;99.90;;;;;;7394711;19;20135;-80
2022/05/31 04:56:19;;;;;;;5.93;2.73;;;13.40;99.90;;;;;;7397346;19;20531;-76
2022/05/31 04:58:46;;;;;;;5.85;3.00;;;13.30;99.90;;;;;;7392093;19;20142;-81
2022/05/31 05:01:12;;;;;;;5.27;2.83;;;13.50;99.90;;;;;;7397808;19;20159;-78
2022/05/31 05:03:41;;;;;;;4.75;2.78;;;13.70;99.90;;;;;;7393794;19;20567;-77
2022/05/31 05:06:09;;;;;;;4.60;3.10;;;13.70;99.90;;;;;;7397243;19;20147;-76
2022/05/31 05:08:36;;;;;;;4.80;2.63;;;13.70;99.90;;;;;;7394365;19;20139;-80
2022/05/31 05:11:04;;;;;;;9.63;4.78;;;13.80;99.90;;;;;;7393406;19;20237;-78
2022/05/31 05:13:31;;;;;;;7.80;3.92;;;13.80;99.90;;;;;;7399308;19;20163;-80
2022/05/31 05:15:57;;;;;;;4.60;3.30;;;13.70;99.90;;;;;;7397006;19;20511;-77
2022/05/31 05:18:23;;;;;;;7.80;4.10;;;13.70;99.90;;;;;;7393101;19;20674;-76
2022/05/31 05:20:50;;;;;;;10.68;4.50;;;13.60;99.90;;;;;;7398557;19;20138;-79
2022/05/31 05:23:16;;;;;;;5.60;3.50;;;13.50;99.90;;;;;;7393552;19;20159;-80
2022/05/31 05:25:52;;;;;;;10.77;4.45;;;13.70;99.90;;;;;;7395151;19;20138;-80
2022/05/31 05:31:04;;;;;;;4.70;2.75;;;13.90;99.90;;;;;;7394481;19;20153;-76
2022/05/31 05:33:30;;;;;;;6.28;2.83;;;13.60;99.90;;;;;;7393305;19;20131;-78
2022/05/31 05:35:57;;;;;;;3.30;2.47;;;13.70;99.90;;;;;;7394583;19;20507;-79
2022/05/31 05:38:23;;;;;;;4.65;2.38;;;13.90;99.90;;;;;;7392731;19;20151;-73
2022/05/31 05:40:49;;;;;;;4.85;2.90;;;13.80;99.90;;;;;;7391703;19;20198;-74
2022/05/31 05:43:16;;;;;;;7.55;3.08;;;13.90;99.90;;;;;;7393190;19;20150;-75
2022/05/31 05:45:42;;;;;;;4.60;3.08;;;14.10;99.90;;;;;;7392374;19;20155;-75
2022/05/31 05:48:08;;;;;;;5.78;2.80;;;14.10;99.90;;;;;;7392936;19;20148;-75
2022/05/31 05:50:36;;;;;;;4.88;2.63;;;14.20;99.90;;;;;;7391053;19;20134;-75
2022/05/31 05:53:08;;;;;;;5.95;3.13;;;14.30;99.90;;;;;;7391634;19;20141;-75
2022/05/31 05:55:36;;;;;;;3.92;2.70;;;14.00;99.90;;;;;;7389891;19;20677;-75
2022/05/31 05:58:03;;;;;;;5.90;2.73;;;14.20;99.90;;;;;;7393810;19;20537;-75
2022/05/31 06:00:30;;;;;;;6.67;3.13;;;14.10;99.90;;;;;;7389545;19;20155;-75
2022/05/31 06:03:12;;;;;;;4.45;2.95;;;14.30;99.90;;;;;;7389029;19;20139;-76
2022/05/31 06:05:39;;;;;;;5.13;3.35;;;14.50;99.90;;;;;;7391419;19;20135;-75
2022/05/31 06:08:11;;;;;;;6.97;3.22;;;14.60;99.90;;;;;;7391235;19;20154;-74
2022/05/31 06:10:45;;;;;;;4.90;3.42;;;14.80;99.90;;;;;;7391124;19;20164;-74
2022/05/31 06:13:18;;;;;;;5.05;3.35;;;15.10;99.90;;;;;;7389912;19;20153;-75
2022/05/31 06:15:48;;;;;;;6.32;3.63;;;15.00;99.90;;;;;;7390376;19;20141;-74
2022/05/31 06:18:19;;;;;;;4.55;3.03;;;15.00;99.90;;;;;;7387550;19;20169;-74
2022/05/31 06:20:49;;;;;;;8.10;3.75;;;15.00;99.90;;;;;;7390798;19;20597;-74
2022/05/31 06:23:15;;;;;;;7.55;3.42;;;15.10;99.90;;;;;;7389000;19;20614;-74
2022/05/31 06:25:41;;;;;;;6.90;3.65;;;15.30;99.90;;;;;;7391232;19;20167;-74
2022/05/31 06:28:08;;;;;;;8.02;3.67;;;15.60;99.90;;;;;;7390492;19;20130;-74
2022/05/31 06:30:33;;;;;;;7.25;3.95;;;16.10;99.90;;;;;;7387375;19;20585;-74
2022/05/31 06:32:59;;;;;;;5.03;3.50;;;16.60;99.90;;;;;;7391380;19;20172;-75
2022/05/31 06:35:26;;;;;;;8.95;3.78;;;16.70;99.90;;;;;;7386170;19;20161;-74
2022/05/31 06:37:52;;;;;;;11.43;4.68;;;16.60;99.90;;;;;;7384944;19;20231;-74
2022/05/31 06:40:18;;;;;;;6.43;3.95;;;16.70;99.90;;;;;;7386394;19;20162;-74
2022/05/31 06:42:43;;;;;;;7.57;3.28;;;16.50;99.90;;;;;;7385331;19;20139;-74
2022/05/31 06:45:09;;;;;;;6.35;3.25;;;16.60;99.90;;;;;;7387231;19;20170;-75
2022/05/31 06:47:37;;;;;;;5.90;3.30;;;16.60;99.90;;;;;;7388801;19;20243;-76
2022/05/31 06:50:03;;;;;;;5.88;3.10;;;16.60;99.90;;;;;;7390481;19;20622;-75
2022/05/31 06:57:58;;;;;;;6.13;3.20;;;16.50;99.90;;;;;;7389119;19;20160;-75
2022/05/31 07:00:25;;;;;;;5.80;3.28;;;16.50;99.90;;;;;;7387934;19;20146;-75
2022/05/31 07:02:53;;;;;;;4.45;3.20;;;16.80;99.90;;;;;;7384817;19;20486;-74
2022/05/31 07:05:19;;;;;;;5.60;3.30;;;17.40;99.90;;;;;;7388077;19;20553;-75
2022/05/31 07:07:46;;;;;;;5.03;3.38;;;17.80;99.90;;;;;;7388203;19;20150;-75
2022/05/31 07:10:13;;;;;;;7.28;3.58;;;18.60;99.90;;;;;;7388817;19;20157;-75
2022/05/31 07:12:40;;;;;;;8.63;3.15;;;19.30;99.00;;;;;;7385000;19;20138;-75
2022/05/31 07:15:07;;;;;;;5.85;3.38;;;19.50;98.30;;;;;;7390608;19;20476;-75
2022/05/31 07:17:33;;;;;;;8.35;4.35;;;19.60;98.10;;;;;;7388058;19;20165;-74
2022/05/31 07:19:58;;;;;;;8.20;3.63;;;20.00;97.60;;;;;;7388411;19;20266;-74
2022/05/31 07:22:24;;;;;;;6.53;3.50;;;20.20;97.10;;;;;;7386269;19;20149;-76
2022/05/31 07:24:50;;;;;;;7.07;2.80;;;20.20;96.70;;;;;;7390530;19;20618;-75
2022/05/31 07:27:16;;;;;;;7.53;4.30;;;20.30;96.60;;;;;;7391564;19;20575;-74
2022/05/31 07:29:42;;;;;;;10.32;3.20;;;20.10;96.70;;;;;;7386974;19;20187;-74
2022/05/31 07:32:08;;;;;;;6.47;3.10;;;19.80;97.10;;;;;;7386949;19;20131;-74
2022/05/31 07:34:34;;;;;;;3.30;2.33;;;19.40;97.40;;;;;;7386433;19;20213;-75
2022/05/31 07:37:00;;;;;;;3.83;2.28;;;19.30;97.90;;;;;;7387086;19;20657;-74
2022/05/31 07:39:26;;;;;;;8.02;3.45;;;19.40;97.60;;;;;;7390617;19;20138;-74
2022/05/31 07:41:54;;;;;;;5.85;2.70;;;19.80;97.40;;;;;;7386674;19;20591;-75
2022/05/31 07:44:21;;;;;;;6.68;2.65;;;20.20;96.70;;;;;;7385065;19;20154;-74
2022/05/31 07:46:47;;;;;;;4.85;2.55;;;19.90;96.70;;;;;;7385655;19;20505;-75
2022/05/31 07:49:14;;;;;;;6.25;2.55;;;19.50;97.20;;;;;;7386771;19;20157;-75
2022/05/31 07:51:40;;;;;;;4.65;2.13;;;19.30;97.70;;;;;;7387775;19;20150;-76
2022/05/31 07:54:06;;;;;;;4.85;2.42;;;19.60;97.50;;;;;;7384989;19;20163;-75
2022/05/31 07:56:32;;;;;;;5.05;2.30;;;19.90;97.10;;;;;;7385124;19;20147;-74
2022/05/31 07:58:58;;;;;;;4.32;2.17;;;20.00;97.00;;;;;;7387311;19;20139;-75
2022/05/31 08:01:27;;;;;;;6.82;2.47;;;20.20;96.80;;;;;;7383276;19;20146;-75
2022/05/31 08:03:53;;;;;;;4.25;2.45;;;20.60;96.20;;;;;;7386156;19;20636;-75
2022/05/31 08:06:27;;;;;;;8.27;2.28;;;20.70;96.00;;;;;;7386415;19;20539;-74
2022/05/31 08:08:53;;;;;;;3.30;1.92;;;21.00;95.80;;;;;;7385052;19;20150;-74
2022/05/31 08:11:22;;;;;;;6.40;2.00;;;21.20;95.10;;;;;;7386677;19;20142;-75
2022/05/31 08:13:48;;;;;;;6.32;2.00;;;21.20;94.60;;;;;;7385763;19;20158;-75
2022/05/31 08:16:17;;;;;;;2.92;1.48;;;21.10;94.50;;;;;;7393963;19;20510;-75
2022/05/31 08:18:43;;;;;;;1.50;1.02;;;21.40;94.50;;;;;;7391967;19;20586;-74
2022/05/31 08:21:12;;;;;;;3.40;1.10;;;22.10;93.40;;;;;;7395352;19;20146;-75
2022/05/31 08:23:38;;;;;;;2.40;1.13;;;22.70;92.70;;;;;;7394868;19;20146;-76
2022/05/31 08:26:05;;;;;;;2.05;1.00;;;23.30;91.70;;;;;;7394774;19;20162;-77
2022/05/31 08:28:31;;;;;;;2.15;0.95;;;23.60;91.10;;;;;;7395515;19;20142;-75
2022/05/31 08:31:00;;;;;;;1.75;1.35;;;23.90;90.10;;;;;;7396263;19;20126;-77
2022/05/31 08:33:27;;;;;;;1.08;0.90;;;24.00;90.00;;;;;;7391186;19;20151;-76
2022/05/31 08:35:53;;;;;;;2.42;1.23;;;24.10;89.00;;;;;;7393784;19;20135;-75
2022/05/31 08:38:19;;;;;;;1.85;1.10;;;23.90;89.40;;;;;;7393208;19;20489;-75
2022/05/31 08:41:04;;;;;;;2.90;2.05;;;24.10;89.90;;;;;;7395159;19;20230;-75
2022/05/31 08:43:45;;;;;;;2.38;1.15;;;24.60;89.10;;;;;;7397916;19;20600;-75
2022/05/31 08:46:17;;;;;;;3.15;1.20;;;24.40;86.30;;;;;;7389340;19;20145;-74
2022/05/31 08:49:23;;;;;;;2.33;1.10;;;23.70;87.50;;;;;;7393030;19;20154;-76
2022/05/31 08:52:04;;;;;;;1.17;0.80;;;23.50;88.70;;;;;;7392932;19;20163;-74
2022/05/31 08:57:50;;;;;;;2.70;1.02;;;23.70;87.20;;;;;;7391917;19;20214;-76
2022/05/31 09:00:26;;;;;;;2.20;0.98;;;23.50;88.10;;;;;;7395825;19;20219;-75
2022/05/31 09:03:09;;;;;;;1.45;1.10;;;23.30;87.40;;;;;;7390599;19;20711;-76
2022/05/31 09:06:07;;;;;;;2.58;1.60;;;23.30;87.50;;;;;;7392784;19;20150;-75
2022/05/31 09:08:46;;;;;;;2.90;1.15;;;23.00;88.80;;;;;;7385876;19;20141;-75
2022/05/31 09:11:18;;;;;;;2.03;1.15;;;22.90;89.10;;;;;;7392236;19;20138;-75
2022/05/31 09:14:16;;;;;;;1.67;0.95;;;22.90;90.00;;;;;;7391613;19;20158;-75
2022/05/31 09:17:03;;;;;;;1.35;1.00;;;23.30;89.90;;;;;;7391261;19;20198;-75
2022/05/31 09:19:42;;;;;;;2.13;0.80;;;23.40;88.80;;;;;;7390606;19;20166;-74
2022/05/31 09:22:09;;;;;;;1.38;1.08;;;23.20;88.20;;;;;;7388736;19;20217;-74
2022/05/31 09:24:41;;;;;;;1.15;0.88;;;22.60;88.70;;;;;;7391585;19;20149;-76
2022/05/31 09:27:13;;;;;;;1.80;0.98;;;22.10;89.80;;;;;;7394015;19;20142;-77
2022/05/31 09:30:06;;;;;;;1.55;0.90;;;21.90;90.30;;;;;;7391780;19;20153;-73
2022/05/31 09:32:43;;;;;;;1.45;1.05;;;22.10;90.60;;;;;;7392505;19;20614;-75
2022/05/31 09:35:34;;;;;;;1.10;0.90;;;22.30;90.20;;;;;;7390884;19;20141;-75
2022/05/31 09:38:22;;;;;;;1.73;0.98;;;22.10;90.30;;;;;;7391809;19;20210;-73
2022/05/31 09:41:05;;;;;;;3.15;1.00;;;22.00;90.30;;;;;;7391179;19;20138;-75
2022/05/31 09:43:40;;;;;;;1.42;1.00;;;22.10;90.30;;;;;;7390973;19;20150;-74
2022/05/31 09:46:10;;;;;;;1.88;1.10;;;22.00;90.60;;;;;;7387556;19;20138;-74
2022/05/31 09:48:48;;;;;;;1.00;0.88;;;22.00;90.50;;;;;;7389410;19;20142;-74
2022/05/31 09:51:36;;;;;;;1.50;0.80;;;21.70;90.50;;;;;;7389169;19;20586;-74
2022/05/31 09:57:06;;;;;;;2.85;1.23;;;21.50;91.50;;;;;;7396930;19;20155;-74
2022/05/31 09:59:35;;;;;;;1.75;0.80;;;21.70;90.90;;;;;;7386667;19;20158;-74
2022/05/31 10:02:29;;;;;;;1.00;0.70;;;21.80;89.50;;;;;;7390209;19;20524;-75
2022/05/31 10:05:17;;;;;;;1.00;0.90;;;21.70;89.00;;;;;;7387235;19;20150;-75
2022/05/31 10:07:44;;;;;;;2.03;1.30;;;22.00;88.70;;;;;;7387545;19;20142;-75
2022/05/31 10:10:23;;;;;;;1.73;1.17;;;22.20;88.70;;;;;;7389426;19;20143;-74
2022/05/31 10:12:58;;;;;;;0.93;0.80;;;22.20;89.60;;;;;;7391212;19;20187;-75
2022/05/31 10:15:44;;;;;;;2.30;1.08;;;22.20;89.30;;;;;;7387073;19;20134;-75
2022/05/31 10:18:13;;;;;;;1.70;0.90;;;22.00;88.50;;;;;;7388196;19;20598;-76
2022/05/31 10:20:58;;;;;;;1.88;1.10;;;21.90;88.60;;;;;;7392039;19;20139;-75
2022/05/31 10:23:35;;;;;;;1.02;0.93;;;22.00;88.30;;;;;;7391542;19;20152;-75
2022/05/31 10:26:05;;;;;;;1.73;1.00;;;22.00;88.80;;;;;;7391544;19;20154;-75
2022/05/31 10:28:41;;;;;;;1.73;1.35;;;21.90;90.30;;;;;;7389871;19;20155;-75
2022/05/31 10:31:47;;;;;;;5.18;1.30;;;21.80;89.10;;;;;;7392361;19;20617;-74
2022/05/31 10:34:31;;;;;;;1.92;0.95;;;21.80;89.20;;;;;;7384651;19;20152;-73
2022/05/31 10:36:59;;;;;;;2.40;1.08;;;21.80;88.70;;;;;;7387901;19;20245;-75
2022/05/31 10:39:28;;;;;;;1.67;0.90;;;21.80;89.20;;;;;;7389017;19;20646;-74
2022/05/31 10:41:57;;;;;;;3.00;1.10;;;21.90;89.70;;;;;;7388888;19;20150;-77
2022/05/31 10:44:38;;;;;;;2.55;0.90;;;21.90;90.00;;;;;;7393835;19;20142;-74
2022/05/31 10:47:11;;;;;;;3.28;1.20;;;21.90;90.70;;;;;;7391659;19;20135;-73
2022/05/31 10:49:37;;;;;;;1.73;1.08;;;21.80;91.70;;;;;;7387510;19;20150;-75
2022/05/31 10:52:18;;;;;;;2.30;1.40;;;21.60;91.90;;;;;;7392559;19;20134;-74
2022/05/31 10:55:02;;;;;;;2.97;1.13;;;21.60;92.00;;;;;;7390432;19;20161;-75
2022/05/31 10:57:39;;;;;;;3.35;1.10;;;21.80;91.90;;;;;;7387498;19;20138;-74
2022/05/31 11:00:24;;;;;;;2.67;1.27;;;21.70;91.60;;;;;;7390140;19;20145;-74
2022/05/31 11:03:17;;;;;;;3.97;1.38;;;21.70;91.70;;;;;;7389404;19;20149;-75
2022/05/31 11:06:06;;;;;;;4.25;1.40;;;21.70;91.70;;;;;;7387639;19;20142;-74
2022/05/31 11:11:58;;;;;;;4.47;1.55;;;21.70;92.00;;;;;;7392458;19;20198;-75
2022/05/31 11:14:26;;;;;;;1.98;1.13;;;22.00;91.50;;;;;;7388265;19;20188;-73
2022/05/31 11:17:03;;;;;;;2.35;1.40;;;22.00;91.00;;;;;;7387310;19;20178;-75
2022/05/31 11:19:48;;;;;;;2.08;1.10;;;22.00;91.20;;;;;;7388311;19;20157;-74
2022/05/31 11:22:20;;;;;;;1.48;1.08;;;22.00;90.80;;;;;;7383241;19;20142;-74
2022/05/31 11:24:48;;;;;;;1.48;1.10;;;22.00;91.00;;;;;;7385693;19;20302;-75
2022/05/31 11:27:26;;;;;;;2.05;1.25;;;22.20;90.70;;;;;;7385773;19;20504;-74
2022/05/31 11:30:19;;;;;;;1.80;1.08;;;22.30;90.00;;;;;;7389205;19;20142;-74
2022/05/31 11:33:14;;;;;;;1.73;1.10;;;22.30;89.70;;;;;;7381806;19;20161;-75
2022/05/31 11:35:52;;;;;;;2.17;1.00;;;22.30;88.50;;;;;;7386737;19;20203;-76
2022/05/31 11:38:30;;;;;;;1.92;1.20;;;22.40;88.50;;;;;;7385593;19;20151;-74
2022/05/31 11:41:26;;;;;;;2.08;1.02;;;22.50;87.90;;;;;;7387349;19;20609;-74
2022/05/31 11:44:14;;;;;;;3.83;1.02;;;22.30;87.40;;;;;;7386442;19;20493;-75
2022/05/31 11:46:44;;;;;;;5.72;1.80;;;22.30;87.40;;;;;;7386453;19;20206;-76
2022/05/31 11:49:30;;;;;;;1.42;1.33;;;22.40;87.40;;;;;;7388442;19;20154;-75
2022/05/31 11:52:16;;;;;;;2.13;0.73;;;22.50;86.80;;;;;;7397092;19;20134;-75
2022/05/31 11:58:12;;;;;;;2.92;1.17;;;22.70;86.10;;;;;;7396264;19;20142;-74
2022/05/31 12:00:42;;;;;;;1.23;1.10;;;22.90;84.00;;;;;;7389985;19;20155;-74
2022/05/31 12:03:41;;;;;;;2.97;0.95;;;22.90;84.40;;;;;;7391609;19;20478;-75
2022/05/31 12:06:27;;;;;;;2.67;0.98;;;22.80;82.80;;;;;;7387377;19;20150;-74
2022/05/31 12:09:14;;;;;;;1.58;1.10;;;22.70;82.60;;;;;;7395198;19;20505;-74
2022/05/31 12:11:51;;;;;;;2.05;0.77;;;22.80;82.70;;;;;;7393161;19;20523;-75
2022/05/31 12:14:20;;;;;;;1.67;1.00;;;22.80;82.00;;;;;;7395322;19;20138;-74
2022/05/31 12:16:46;;;;;;;1.20;1.00;;;22.90;81.80;;;;;;7393391;19;20166;-74
2022/05/31 12:19:28;;;;;;;2.97;1.20;;;23.00;81.60;;;;;;7390993;19;20162;-74
2022/05/31 12:22:24;;;;;;;0.77;0.77;;;23.00;81.10;;;;;;7392113;19;20689;-74
2022/05/31 12:25:04;;;;;;;1.20;1.02;;;23.00;81.00;;;;;;7394761;19;20150;-74
2022/05/31 12:27:53;;;;;;;1.98;1.00;;;22.90;80.90;;;;;;7392743;19;20179;-74
2022/05/31 12:30:31;;;;;;;1.08;0.82;;;22.80;80.90;;;;;;7393223;19;20183;-73
2022/05/31 12:32:58;;;;;;;2.10;0.90;;;22.70;82.00;;;;;;7393779;19;20154;-74
2022/05/31 12:35:31;;;;;;;1.90;1.08;;;22.70;80.70;;;;;;7394948;19;20204;-74
2022/05/31 12:38:06;;;;;;;1.80;1.02;;;22.70;81.00;;;;;;7390014;19;20179;-74
2022/05/31 12:40:38;;;;;;;2.03;0.95;;;22.50;81.00;;;;;;7394237;19;20152;-74
2022/05/31 12:43:33;;;;;;;2.25;0.90;;;22.50;80.80;;;;;;7386315;19;20162;-74
2022/05/31 12:45:59;;;;;;;1.73;0.93;;;22.50;80.90;;;;;;7392990;19;20158;-74
2022/05/31 12:48:27;;;;;;;2.25;1.10;;;22.50;81.40;;;;;;7392633;19;20528;-74
2022/05/31 12:50:56;;;;;;;2.40;1.00;;;22.60;80.60;;;;;;7391282;19;20147;-74
2022/05/31 12:53:35;;;;;;;1.58;0.98;;;22.70;80.00;;;;;;7391413;19;20147;-75
2022/05/31 12:56:01;;;;;;;5.00;1.33;;;22.80;79.00;;;;;;7390315;19;20163;-75
2022/05/31 12:58:28;;;;;;;3.63;1.30;;;22.90;78.30;;;;;;7391938;19;20177;-74
2022/05/31 13:00:59;;;;;;;2.08;1.15;;;23.00;78.70;;;;;;7389999;19;20497;-74
2022/05/31 13:03:34;;;;;;;0.88;0.80;;;23.20;78.90;;;;;;7389402;19;20163;-73
2022/05/31 13:06:15;;;;;;;2.47;1.10;;;23.10;78.80;;;;;;7391432;19;20157;-74
2022/05/31 13:08:56;;;;;;;1.60;1.00;;;23.10;79.30;;;;;;7390232;19;20282;-74
2022/05/31 13:20:28;;;;;;;0.88;0.80;;;23.10;77.80;;;;;;7390195;19;20131;-75
2022/05/31 13:22:59;;;;;;;2.13;1.30;;;23.00;77.20;;;;;;7390177;19;20145;-73
2022/05/31 13:25:53;;;;;;;1.50;1.02;;;23.00;76.80;;;;;;7389297;19;20516;-75
2022/05/31 13:28:37;;;;;;;2.97;0.90;;;22.90;76.30;;;;;;7391962;19;20157;-74
2022/05/31 13:31:19;;;;;;;1.15;0.80;;;22.70;76.80;;;;;;7391218;19;20138;-74
2022/05/31 13:33:55;;;;;;;2.25;1.05;;;22.60;76.50;;;;;;7390596;19;20130;-73
2022/05/31 13:36:26;;;;;;;2.40;0.90;;;22.70;76.60;;;;;;7394182;19;20172;-74
2022/05/31 13:39:18;;;;;;;2.05;1.25;;;22.70;76.70;;;;;;7392983;19;20141;-75
2022/05/31 13:41:51;;;;;;;1.10;0.90;;;22.90;76.60;;;;;;7391766;19;20460;-74